sensor_id;sensor_type;location;lat;lon;timestamp;P1;durP1;ratioP1;P2;durP2;ratioP2
22017;SDS011;11173;51.050;7.108;2023-02-13T00:07:56;3.38;;;3.08;;
22017;SDS011;11173;51.050;7.108;2023-02-13T00:17:56;2.97;;;2.67;;
22017;SDS011;11173;51.050;7.108;2023-02-13T00:27:57;5.35;;;4.57;;
22017;SDS011;11173;51.050;7.108;2023-02-13T00:37:57;8.13;;;6.15;;
22017;SDS011;11173;51.050;7.108;2023-02-13T00:47:57;4.45;;;4.00;;
22017;SDS011;11173;51.050;7.108;2023-02-13T00:57:57;3.80;;;3.42;;
22017;SDS011;11173;51.050;7.108;2023-02-13T01:07:58;5.30;;;4.53;;
22017;SDS011;11173;51.050;7.108;2023-02-13T01:17:58;6.32;;;5.47;;
22017;SDS011;11173;51.050;7.108;2023-02-13T01:27:59;4.80;;;4.32;;
22017;SDS011;11173;51.050;7.108;2023-02-13T01:38:00;3.38;;;3.08;;
22017;SDS011;11173;51.050;7.108;2023-02-13T01:48:02;4.22;;;3.67;;
22017;SDS011;11173;51.050;7.108;2023-02-13T01:58:08;3.97;;;3.55;;
22017;SDS011;11173;51.050;7.108;2023-02-13T02:08:09;3.67;;;3.28;;
22017;SDS011;11173;51.050;7.108;2023-02-13T02:18:12;2.85;;;2.65;;
22017;SDS011;11173;51.050;7.108;2023-02-13T02:48:32;4.00;;;3.65;;
22017;SDS011;11173;51.050;7.108;2023-02-13T02:58:57;1.75;;;1.65;;
22017;SDS011;11173;51.050;7.108;2023-02-13T03:09:23;2.28;;;2.05;;
22017;SDS011;11173;51.050;7.108;2023-02-13T03:19:55;3.40;;;3.10;;
22017;SDS011;11173;51.050;7.108;2023-02-13T03:40:17;2.63;;;2.42;;
22017;SDS011;11173;51.050;7.108;2023-02-13T03:50:20;4.60;;;4.20;;
22017;SDS011;11173;51.050;7.108;2023-02-13T04:00:21;2.70;;;2.50;;
22017;SDS011;11173;51.050;7.108;2023-02-13T04:10:23;3.05;;;2.80;;
22017;SDS011;11173;51.050;7.108;2023-02-13T04:20:27;2.40;;;2.20;;
22017;SDS011;11173;51.050;7.108;2023-02-13T04:30:28;2.50;;;2.30;;
22017;SDS011;11173;51.050;7.108;2023-02-13T04:40:28;4.43;;;4.03;;
22017;SDS011;11173;51.050;7.108;2023-02-13T04:50:28;2.92;;;2.72;;
22017;SDS011;11173;51.050;7.108;2023-02-13T05:00:28;1.80;;;1.70;;
22017;SDS011;11173;51.050;7.108;2023-02-13T05:10:29;2.35;;;2.15;;
22017;SDS011;11173;51.050;7.108;2023-02-13T05:20:29;1.92;;;1.73;;
22017;SDS011;11173;51.050;7.108;2023-02-13T05:30:30;3.25;;;3.05;;
22017;SDS011;11173;51.050;7.108;2023-02-13T05:40:30;2.95;;;2.75;;
22017;SDS011;11173;51.050;7.108;2023-02-13T05:50:30;2.17;;;1.98;;
22017;SDS011;11173;51.050;7.108;2023-02-13T06:00:30;1.75;;;1.50;;
22017;SDS011;11173;51.050;7.108;2023-02-13T06:10:31;4.78;;;4.22;;
22017;SDS011;11173;51.050;7.108;2023-02-13T06:20:31;3.38;;;3.08;;
22017;SDS011;11173;51.050;7.108;2023-02-13T06:30:31;3.80;;;3.50;;
22017;SDS011;11173;51.050;7.108;2023-02-13T06:40:32;4.80;;;4.38;;
22017;SDS011;11173;51.050;7.108;2023-02-13T06:50:32;3.83;;;3.53;;
22017;SDS011;11173;51.050;7.108;2023-02-13T07:00:33;4.47;;;4.10;;
22017;SDS011;11173;51.050;7.108;2023-02-13T07:10:35;6.03;;;5.35;;
22017;SDS011;11173;51.050;7.108;2023-02-13T07:20:35;7.05;;;6.22;;
22017;SDS011;11173;51.050;7.108;2023-02-13T07:30:36;7.97;;;6.65;;
22017;SDS011;11173;51.050;7.108;2023-02-13T07:40:36;6.30;;;5.57;;
22017;SDS011;11173;51.050;7.108;2023-02-13T07:50:36;5.30;;;4.80;;
22017;SDS011;11173;51.050;7.108;2023-02-13T08:00:37;6.70;;;6.07;;
22017;SDS011;11173;51.050;7.108;2023-02-13T08:10:38;7.18;;;5.15;;
22017;SDS011;11173;51.050;7.108;2023-02-13T08:20:57;9.50;;;7.57;;
22017;SDS011;11173;51.050;7.108;2023-02-13T08:30:57;6.18;;;5.35;;
22017;SDS011;11173;51.050;7.108;2023-02-13T08:40:58;8.05;;;6.75;;
22017;SDS011;11173;51.050;7.108;2023-02-13T08:50:58;4.97;;;4.47;;
22017;SDS011;11173;51.050;7.108;2023-02-13T09:00:58;6.20;;;4.97;;
22017;SDS011;11173;51.050;7.108;2023-02-13T09:11:00;4.10;;;3.70;;
22017;SDS011;11173;51.050;7.108;2023-02-13T09:21:02;3.95;;;3.63;;
22017;SDS011;11173;51.050;7.108;2023-02-13T09:31:09;3.75;;;3.45;;
22017;SDS011;11173;51.050;7.108;2023-02-13T09:41:24;6.68;;;5.93;;
22017;SDS011;11173;51.050;7.108;2023-02-13T09:51:25;3.55;;;3.25;;
22017;SDS011;11173;51.050;7.108;2023-02-13T10:01:29;2.47;;;2.28;;
22017;SDS011;11173;51.050;7.108;2023-02-13T10:11:41;2.70;;;2.50;;
22017;SDS011;11173;51.050;7.108;2023-02-13T10:21:48;2.40;;;2.20;;
22017;SDS011;11173;51.050;7.108;2023-02-13T10:31:54;2.10;;;1.98;;
22017;SDS011;11173;51.050;7.108;2023-02-13T10:42:03;4.22;;;3.85;;
22017;SDS011;11173;51.050;7.108;2023-02-13T11:02:22;2.30;;;2.20;;
22017;SDS011;11173;51.050;7.108;2023-02-13T11:22:37;3.03;;;2.72;;
22017;SDS011;11173;51.050;7.108;2023-02-13T11:32:38;1.23;;;1.13;;
22017;SDS011;11173;51.050;7.108;2023-02-13T11:42:40;3.78;;;3.47;;
22017;SDS011;11173;51.050;7.108;2023-02-13T11:52:41;2.20;;;2.10;;
22017;SDS011;11173;51.050;7.108;2023-02-13T12:02:46;2.92;;;2.10;;
22017;SDS011;11173;51.050;7.108;2023-02-13T12:12:58;1.63;;;1.52;;
22017;SDS011;11173;51.050;7.108;2023-02-13T12:23:04;2.08;;;1.65;;
22017;SDS011;11173;51.050;7.108;2023-02-13T12:43:23;3.20;;;2.90;;
22017;SDS011;11173;51.050;7.108;2023-02-13T13:03:57;3.72;;;3.28;;
22017;SDS011;11173;51.050;7.108;2023-02-13T13:34:15;1.73;;;1.60;;
22017;SDS011;11173;51.050;7.108;2023-02-13T13:54:34;0.98;;;0.98;;
22017;SDS011;11173;51.050;7.108;2023-02-13T14:04:38;1.00;;;1.00;;
22017;SDS011;11173;51.050;7.108;2023-02-13T14:14:42;0.57;;;0.57;;
22017;SDS011;11173;51.050;7.108;2023-02-13T14:24:49;1.10;;;0.70;;
22017;SDS011;11173;51.050;7.108;2023-02-13T14:34:51;0.70;;;0.70;;
22017;SDS011;11173;51.050;7.108;2023-02-13T14:44:53;0.40;;;0.40;;
22017;SDS011;11173;51.050;7.108;2023-02-13T15:14:56;0.30;;;0.30;;
22017;SDS011;11173;51.050;7.108;2023-02-13T15:24:56;0.40;;;0.38;;
22017;SDS011;11173;51.050;7.108;2023-02-13T15:34:57;0.30;;;0.30;;
22017;SDS011;11173;51.050;7.108;2023-02-13T15:44:57;0.20;;;0.20;;
22017;SDS011;11173;51.050;7.108;2023-02-13T15:54:57;0.20;;;0.20;;
22017;SDS011;11173;51.050;7.108;2023-02-13T16:04:58;0.20;;;0.20;;
22017;SDS011;11173;51.050;7.108;2023-02-13T16:15:00;0.20;;;0.20;;
22017;SDS011;11173;51.050;7.108;2023-02-13T16:35:15;0.20;;;0.20;;
22017;SDS011;11173;51.050;7.108;2023-02-13T16:45:22;0.20;;;0.20;;
22017;SDS011;11173;51.050;7.108;2023-02-13T16:55:22;0.47;;;0.47;;
22017;SDS011;11173;51.050;7.108;2023-02-13T17:05:24;0.70;;;0.70;;
22017;SDS011;11173;51.050;7.108;2023-02-13T17:15:26;0.60;;;0.60;;
22017;SDS011;11173;51.050;7.108;2023-02-13T17:25:31;0.50;;;0.50;;
22017;SDS011;11173;51.050;7.108;2023-02-13T17:35:32;0.60;;;0.60;;
22017;SDS011;11173;51.050;7.108;2023-02-13T17:45:32;0.93;;;0.90;;
22017;SDS011;11173;51.050;7.108;2023-02-13T17:55:33;0.65;;;0.65;;
22017;SDS011;11173;51.050;7.108;2023-02-13T18:05:34;0.65;;;0.65;;
22017;SDS011;11173;51.050;7.108;2023-02-13T18:15:37;1.13;;;1.10;;
22017;SDS011;11173;51.050;7.108;2023-02-13T18:25:38;1.52;;;1.30;;
22017;SDS011;11173;51.050;7.108;2023-02-13T18:35:38;2.05;;;1.52;;
22017;SDS011;11173;51.050;7.108;2023-02-13T18:45:38;3.15;;;1.17;;
22017;SDS011;11173;51.050;7.108;2023-02-13T18:55:39;1.60;;;1.50;;
22017;SDS011;11173;51.050;7.108;2023-02-13T19:05:39;1.60;;;1.50;;
22017;SDS011;11173;51.050;7.108;2023-02-13T19:15:40;2.78;;;2.17;;
22017;SDS011;11173;51.050;7.108;2023-02-13T19:25:40;1.80;;;1.70;;
22017;SDS011;11173;51.050;7.108;2023-02-13T19:35:41;1.63;;;1.52;;
22017;SDS011;11173;51.050;7.108;2023-02-13T19:45:41;2.20;;;2.00;;
22017;SDS011;11173;51.050;7.108;2023-02-13T19:55:42;2.40;;;2.20;;
22017;SDS011;11173;51.050;7.108;2023-02-13T20:05:43;2.05;;;1.80;;
22017;SDS011;11173;51.050;7.108;2023-02-13T20:15:43;2.30;;;2.10;;
22017;SDS011;11173;51.050;7.108;2023-02-13T20:25:43;2.60;;;2.40;;
22017;SDS011;11173;51.050;7.108;2023-02-13T20:35:43;2.40;;;2.20;;
22017;SDS011;11173;51.050;7.108;2023-02-13T20:45:44;2.80;;;2.60;;
22017;SDS011;11173;51.050;7.108;2023-02-13T20:55:44;2.90;;;2.70;;
22017;SDS011;11173;51.050;7.108;2023-02-13T21:05:45;3.55;;;3.03;;
22017;SDS011;11173;51.050;7.108;2023-02-13T21:15:45;3.13;;;2.83;;
22017;SDS011;11173;51.050;7.108;2023-02-13T21:25:48;3.88;;;3.47;;
22017;SDS011;11173;51.050;7.108;2023-02-13T21:35:48;3.33;;;3.03;;
22017;SDS011;11173;51.050;7.108;2023-02-13T21:45:49;2.63;;;2.42;;
22017;SDS011;11173;51.050;7.108;2023-02-13T21:55:50;3.10;;;2.80;;
22017;SDS011;11173;51.050;7.108;2023-02-13T22:05:50;3.35;;;3.05;;
22017;SDS011;11173;51.050;7.108;2023-02-13T22:16:00;3.38;;;3.08;;
22017;SDS011;11173;51.050;7.108;2023-02-13T22:26:00;3.17;;;2.97;;
22017;SDS011;11173;51.050;7.108;2023-02-13T22:36:01;3.58;;;3.28;;
22017;SDS011;11173;51.050;7.108;2023-02-13T22:46:05;4.13;;;3.58;;
22017;SDS011;11173;51.050;7.108;2023-02-13T22:56:06;4.07;;;3.30;;
22017;SDS011;11173;51.050;7.108;2023-02-13T23:06:07;4.07;;;3.78;;
22017;SDS011;11173;51.050;7.108;2023-02-13T23:16:11;4.97;;;3.90;;
22017;SDS011;11173;51.050;7.108;2023-02-13T23:26:12;5.90;;;3.63;;
22017;SDS011;11173;51.050;7.108;2023-02-13T23:36:13;3.95;;;3.53;;
22017;SDS011;11173;51.050;7.108;2023-02-13T23:46:13;5.25;;;3.95;;
22017;SDS011;11173;51.050;7.108;2023-02-13T23:56:13;5.90;;;3.83;;
